Time,TemperatureF,DewpointF,PressureIn,WindDirection,WindDirectionDegrees,WindSpeedMPH,WindSpeedGustMPH,Humidity,HourlyPrecipIn,Conditions,Clouds,dailyrainin,SolarRadiationWatts/m^2,SoftwareType,DateUTC
2013-03-02 00:00:00,38.5,29.9,30.29,SSW,196,14.0,14.0,71,0.00,,,0.00,0,Wunderground v.1.15,2013-03-02 07:00:00,
2013-03-02 00:06:00,37.7,29.5,30.28,South,183,14.0,16.0,72,0.00,,,0.00,0,Wunderground v.1.15,2013-03-02 07:06:00,
2013-03-02 00:12:00,39.0,30.4,30.28,South,181,15.0,17.0,71,0.00,,,0.00,0,Wunderground v.1.15,2013-03-02 07:12:00,
2013-03-02 00:18:00,38.3,29.7,30.29,SSW,194,16.0,17.0,71,0.00,,,0.00,0,Wunderground v.1.15,2013-03-02 07:18:00,
2013-03-02 00:24:00,36.2,29.4,30.29,South,181,17.0,17.0,76,0.00,,,0.00,0,Wunderground v.1.15,2013-03-02 07:24:00,
2013-03-02 00:30:00,36.4,29.6,30.29,South,182,16.0,16.0,76,0.00,,,0.00,0,Wunderground v.1.15,2013-03-02 07:30:00,
2013-03-02 00:36:00,36.5,29.7,30.29,South,189,15.0,16.0,76,0.00,,,0.00,0,Wunderground v.1.15,2013-03-02 07:36:00,
2013-03-02 00:42:00,37.7,30.2,30.29,South,191,15.0,15.0,74,0.00,,,0.00,0,Wunderground v.1.15,2013-03-02 07:42:00,
2013-03-02 00:48:00,38.7,30.1,30.29,SSW,195,13.0,15.0,71,0.00,,,0.00,0,Wunderground v.1.15,2013-03-02 07:48:00,
2013-03-02 00:54:00,39.8,30.1,30.29,SSW,194,14.0,14.0,68,0.00,,,0.00,0,Wunderground v.1.15,2013-03-02 07:54:00,
2013-03-02 01:00:00,38.6,29.3,30.29,South,179,13.0,13.0,69,0.00,,,0.00,0,Wunderground v.1.15,2013-03-02 08:00:00,
2013-03-02 01:06:00,38.3,29.7,30.29,South,184,13.0,14.0,71,0.00,,,0.00,0,Wunderground v.1.15,2013-03-02 08:06:00,
2013-03-02 01:12:00,40.1,30.0,30.29,South,185,12.0,15.0,67,0.00,,,0.00,0,Wunderground v.1.15,2013-03-02 08:12:00,
2013-03-02 01:18:00,37.6,29.0,30.29,South,190,14.0,15.0,71,0.00,,,0.00,0,Wunderground v.1.15,2013-03-02 08:18:00,
2013-03-02 01:24:00,36.4,29.2,30.28,South,185,14.0,19.0,75,0.00,,,0.00,0,Wunderground v.1.15,2013-03-02 08:24:00,
2013-03-02 01:30:00,37.5,30.0,30.28,South,184,15.0,17.0,74,0.00,,,0.00,0,Wunderground v.1.15,2013-03-02 08:30:00,
2013-03-02 01:36:00,37.3,29.4,30.28,South,171,16.0,17.0,73,0.00,,,0.00,0,Wunderground v.1.15,2013-03-02 08:36:00,
2013-03-02 01:42:00,37.8,29.9,30.29,South,183,15.0,16.0,73,0.00,,,0.00,0,Wunderground v.1.15,2013-03-02 08:42:00,
2013-03-02 01:48:00,37.0,29.1,30.29,South,179,13.0,16.0,73,0.00,,,0.00,0,Wunderground v.1.15,2013-03-02 08:48:00,
2013-03-02 01:54:00,35.3,28.8,30.29,SSW,196,12.0,15.0,77,0.00,,,0.00,0,Wunderground v.1.15,2013-03-02 08:54:00,
2013-03-02 02:00:00,35.4,29.2,30.29,South,191,13.0,13.0,78,0.00,,,0.00,0,Wunderground v.1.15,2013-03-02 09:00:00,
2013-03-02 02:06:00,35.4,29.2,30.29,South,171,12.0,19.0,78,0.00,,,0.00,0,Wunderground v.1.15,2013-03-02 09:06:00,
2013-03-02 02:12:00,36.9,29.7,30.29,SSE,164,14.0,19.0,75,0.00,,,0.00,0,Wunderground v.1.15,2013-03-02 09:12:00,
2013-03-02 02:18:00,37.8,29.2,30.29,South,183,16.0,19.0,71,0.00,,,0.00,0,Wunderground v.1.15,2013-03-02 09:18:00,
2013-03-02 02:24:00,39.4,29.7,30.29,SSE,161,16.0,19.0,68,0.00,,,0.00,0,Wunderground v.1.15,2013-03-02 09:24:00,
2013-03-02 02:30:00,40.1,30.0,30.28,SSE,157,15.0,19.0,67,0.00,,,0.00,0,Wunderground v.1.15,2013-03-02 09:30:00,
2013-03-02 02:38:00,39.3,29.6,30.28,South,174,13.0,19.0,68,0.00,,,0.00,0,Wunderground v.1.15,2013-03-02 09:38:00,
2013-03-02 02:44:00,38.8,29.8,30.28,SSE,164,13.0,19.0,70,0.00,,,0.00,0,Wunderground v.1.15,2013-03-02 09:44:00,
2013-03-02 02:50:00,39.8,30.1,30.28,SSE,163,13.0,13.0,68,0.00,,,0.00,0,Wunderground v.1.15,2013-03-02 09:50:00,
2013-03-02 02:56:00,40.1,30.0,30.28,SSE,162,13.0,19.0,67,0.00,,,0.00,0,Wunderground v.1.15,2013-03-02 09:56:00,
2013-03-02 03:02:00,40.1,29.6,30.28,SSE,152,13.0,19.0,66,0.00,,,0.00,0,Wunderground v.1.15,2013-03-02 10:02:00,
2013-03-02 03:08:00,40.0,29.9,30.27,SSE,153,13.0,19.0,67,0.00,,,0.00,0,Wunderground v.1.15,2013-03-02 10:08:00,
2013-03-02 03:14:00,39.3,29.6,30.27,SSE,153,13.0,19.0,68,0.00,,,0.00,0,Wunderground v.1.15,2013-03-02 10:14:00,
2013-03-02 03:20:00,39.0,29.3,30.27,SSE,148,13.0,19.0,68,0.00,,,0.00,0,Wunderground v.1.15,2013-03-02 10:20:00,
2013-03-02 03:26:00,39.1,29.4,30.27,SSE,147,14.0,19.0,68,0.00,,,0.00,0,Wunderground v.1.15,2013-03-02 10:26:00,
2013-03-02 03:32:00,39.8,29.7,30.27,SSE,157,14.0,19.0,67,0.00,,,0.00,0,Wunderground v.1.15,2013-03-02 10:32:00,
2013-03-02 03:38:00,40.7,29.8,30.27,SE,145,15.0,19.0,65,0.00,,,0.00,0,Wunderground v.1.15,2013-03-02 10:38:00,
2013-03-02 03:44:00,40.6,29.7,30.27,SSE,160,15.0,20.0,65,0.00,,,0.00,0,Wunderground v.1.15,2013-03-02 10:44:00,
2013-03-02 03:50:00,41.0,30.1,30.26,SSE,157,15.0,19.0,65,0.00,,,0.00,0,Wunderground v.1.15,2013-03-02 10:50:00,
2013-03-02 03:56:00,41.1,30.2,30.27,SSE,162,15.0,19.0,65,0.00,,,0.00,0,Wunderground v.1.15,2013-03-02 10:56:00,
2013-03-02 04:02:00,41.1,29.8,30.26,SSE,162,15.0,19.0,64,0.00,,,0.00,0,Wunderground v.1.15,2013-03-02 11:02:00,
2013-03-02 04:08:00,40.5,30.0,30.26,SSE,158,16.0,19.0,66,0.00,,,0.00,0,Wunderground v.1.15,2013-03-02 11:08:00,
2013-03-02 04:14:00,40.6,30.1,30.26,SSE,154,17.0,21.0,66,0.00,,,0.00,0,Wunderground v.1.15,2013-03-02 11:14:00,
2013-03-02 04:20:00,41.0,30.1,30.26,SSE,166,19.0,21.0,65,0.00,,,0.00,0,Wunderground v.1.15,2013-03-02 11:20:00,
2013-03-02 04:26:00,39.8,29.7,30.26,SSE,147,18.0,21.0,67,0.00,,,0.00,0,Wunderground v.1.15,2013-03-02 11:26:00,
2013-03-02 04:32:00,39.1,29.1,30.27,SE,143,14.0,19.0,67,0.00,,,0.00,0,Wunderground v.1.15,2013-03-02 11:32:00,
2013-03-02 04:38:00,39.8,29.4,30.26,SE,128,13.0,19.0,66,0.00,,,0.00,0,Wunderground v.1.15,2013-03-02 11:38:00,
2013-03-02 04:44:00,40.4,29.6,30.26,SE,140,14.0,19.0,65,0.00,,,0.00,0,Wunderground v.1.15,2013-03-02 11:44:00,
2013-03-02 04:50:00,40.6,29.7,30.26,SSE,158,15.0,15.0,65,0.00,,,0.00,0,Wunderground v.1.15,2013-03-02 11:50:00,
2013-03-02 04:56:00,40.8,29.2,30.26,SE,145,13.0,19.0,63,0.00,,,0.00,0,Wunderground v.1.15,2013-03-02 11:56:00,
2013-03-02 05:02:00,40.9,29.3,30.26,SSE,147,9.0,19.0,63,0.00,,,0.00,0,Wunderground v.1.15,2013-03-02 12:02:00,
2013-03-02 05:08:00,40.9,29.7,30.26,SE,141,10.0,19.0,64,0.00,,,0.00,0,Wunderground v.1.15,2013-03-02 12:08:00,
2013-03-02 05:14:00,40.5,29.3,30.26,SE,145,12.0,19.0,64,0.00,,,0.00,0,Wunderground v.1.15,2013-03-02 12:14:00,
2013-03-02 05:20:00,39.9,29.1,30.25,SSE,159,11.0,11.0,65,0.00,,,0.00,0,Wunderground v.1.15,2013-03-02 12:20:00,
2013-03-02 05:26:00,39.5,28.7,30.26,SE,145,10.0,19.0,65,0.00,,,0.00,0,Wunderground v.1.15,2013-03-02 12:26:00,
2013-03-02 05:32:00,38.0,28.4,30.26,SSE,154,9.0,19.0,68,0.00,,,0.00,0,Wunderground v.1.15,2013-03-02 12:32:00,
2013-03-02 05:38:00,38.3,28.7,30.25,SSE,166,9.0,19.0,68,0.00,,,0.00,0,Wunderground v.1.15,2013-03-02 12:38:00,
2013-03-02 05:46:00,37.8,28.5,30.26,South,187,10.0,19.0,69,0.00,,,0.00,0,Wunderground v.1.15,2013-03-02 12:46:00,
2013-03-02 05:52:00,38.5,28.9,30.26,SSE,166,8.0,19.0,68,0.00,,,0.00,0,Wunderground v.1.15,2013-03-02 12:52:00,
2013-03-02 05:58:00,38.6,28.6,30.26,South,177,6.0,19.0,67,0.00,,,0.00,0,Wunderground v.1.15,2013-03-02 12:58:00,
2013-03-02 06:04:00,39.0,28.6,30.26,SSE,151,6.0,14.0,66,0.00,,,0.00,0,Wunderground v.1.15,2013-03-02 13:04:00,
2013-03-02 06:10:00,38.8,28.4,30.26,South,190,7.0,14.0,66,0.00,,,0.00,0,Wunderground v.1.15,2013-03-02 13:10:00,
2013-03-02 06:16:00,38.3,28.3,30.26,South,181,8.0,14.0,67,0.00,,,0.00,0,Wunderground v.1.15,2013-03-02 13:16:00,
2013-03-02 06:22:00,37.3,28.1,30.26,South,169,9.0,14.0,69,0.00,,,0.00,0,Wunderground v.1.15,2013-03-02 13:22:00,
2013-03-02 06:28:00,37.4,28.2,30.26,SSE,150,10.0,14.0,69,0.00,,,0.00,0,Wunderground v.1.15,2013-03-02 13:28:00,
2013-03-02 06:34:00,38.1,28.5,30.26,SSE,156,10.0,14.0,68,0.00,,,0.00,0,Wunderground v.1.15,2013-03-02 13:34:00,
2013-03-02 06:40:00,38.1,28.1,30.26,SSE,160,10.0,14.0,67,0.00,,,0.00,0,Wunderground v.1.15,2013-03-02 13:40:00,
2013-03-02 06:46:00,37.6,28.0,30.25,SE,138,10.0,14.0,68,0.00,,,0.00,0,Wunderground v.1.15,2013-03-02 13:46:00,
2013-03-02 06:52:00,38.2,28.2,30.25,SE,143,11.0,14.0,67,0.00,,,0.00,0,Wunderground v.1.15,2013-03-02 13:52:00,
2013-03-02 07:00:00,38.9,28.1,30.26,SSE,156,11.0,14.0,65,0.00,,,0.00,0,Wunderground v.1.15,2013-03-02 14:00:00,
2013-03-02 07:06:00,38.5,28.1,30.25,SSE,156,10.0,14.0,66,0.00,,,0.00,0,Wunderground v.1.15,2013-03-02 14:06:00,
2013-03-02 07:12:00,36.9,28.0,30.25,SSE,162,10.0,14.0,70,0.00,,,0.00,0,Wunderground v.1.15,2013-03-02 14:12:00,
2013-03-02 07:18:00,36.4,27.9,30.26,SSE,162,9.0,14.0,71,0.00,,,0.00,7,Wunderground v.1.15,2013-03-02 14:18:00,
2013-03-02 07:26:00,37.6,28.3,30.25,South,175,10.0,14.0,69,0.00,,,0.00,12,Wunderground v.1.15,2013-03-02 14:26:00,
2013-03-02 07:32:00,35.9,27.7,30.24,South,179,12.0,14.0,72,0.00,,,0.00,18,Wunderground v.1.15,2013-03-02 14:32:00,
2013-03-02 07:38:00,35.0,27.9,30.24,South,179,13.0,14.0,75,0.00,,,0.00,25,Wunderground v.1.15,2013-03-02 14:38:00,
2013-03-02 07:44:00,35.2,27.7,30.24,South,184,12.0,14.0,74,0.00,,,0.00,30,Wunderground v.1.15,2013-03-02 14:44:00,
2013-03-02 07:52:00,34.1,27.6,30.23,South,180,11.0,14.0,77,0.00,,,0.00,49,Wunderground v.1.15,2013-03-02 14:52:00,
2013-03-02 07:58:00,34.1,28.0,30.23,South,177,12.0,14.0,78,0.00,,,0.00,60,Wunderground v.1.15,2013-03-02 14:58:00,
2013-03-02 08:04:00,34.0,27.9,30.23,South,191,12.0,14.0,78,0.00,,,0.00,79,Wunderground v.1.15,2013-03-02 15:04:00,
2013-03-02 08:10:00,34.6,28.4,30.23,South,190,12.0,14.0,78,0.00,,,0.00,95,Wunderground v.1.15,2013-03-02 15:10:00,
2013-03-02 08:16:00,35.6,28.8,30.22,South,189,12.0,14.0,76,0.00,,,0.00,123,Wunderground v.1.15,2013-03-02 15:16:00,
2013-03-02 08:22:00,35.8,29.0,30.22,South,177,12.0,14.0,76,0.00,,,0.00,162,Wunderground v.1.15,2013-03-02 15:22:00,
2013-03-02 08:28:00,37.0,29.1,30.22,SSW,194,12.0,14.0,73,0.00,,,0.00,171,Wunderground v.1.15,2013-03-02 15:28:00,
2013-03-02 08:34:00,37.0,29.5,30.22,SSW,195,11.0,14.0,74,0.00,,,0.00,148,Wunderground v.1.15,2013-03-02 15:34:00,
2013-03-02 08:40:00,37.3,29.4,30.22,South,189,12.0,12.0,73,0.00,,,0.00,172,Wunderground v.1.15,2013-03-02 15:40:00,
2013-03-02 08:46:00,37.5,30.0,30.21,South,189,11.0,14.0,74,0.00,,,0.00,132,Wunderground v.1.15,2013-03-02 15:46:00,
2013-03-02 08:52:00,38.6,30.4,30.21,South,187,13.0,15.0,72,0.00,,,0.00,109,Wunderground v.1.15,2013-03-02 15:52:00,
2013-03-02 09:00:00,38.4,30.2,30.21,South,181,15.0,15.0,72,0.00,,,0.00,216,Wunderground v.1.15,2013-03-02 16:00:00,
2013-03-02 09:08:00,38.6,30.4,30.20,South,188,15.0,16.0,72,0.00,,,0.00,200,Wunderground v.1.15,2013-03-02 16:08:00,
2013-03-02 09:14:00,39.3,30.7,30.20,South,182,16.0,17.0,71,0.00,,,0.00,229,Wunderground v.1.15,2013-03-02 16:14:00,
2013-03-02 09:22:00,40.0,30.6,30.20,South,181,17.0,17.0,69,0.00,,,0.00,257,Wunderground v.1.15,2013-03-02 16:22:00,
2013-03-02 09:28:00,40.9,30.4,30.20,South,174,17.0,18.0,66,0.00,,,0.00,218,Wunderground v.1.15,2013-03-02 16:28:00,
2013-03-02 09:34:00,41.2,30.3,30.19,South,175,18.0,21.0,65,0.00,,,0.00,264,Wunderground v.1.15,2013-03-02 16:34:00,
2013-03-02 09:44:00,41.4,30.5,30.19,South,178,17.0,17.0,65,0.00,,,0.00,260,Wunderground v.1.15,2013-03-02 16:44:00,
2013-03-02 09:50:00,42.2,30.5,30.19,South,181,14.0,16.0,63,0.00,,,0.00,294,Wunderground v.1.15,2013-03-02 16:50:00,
2013-03-02 09:56:00,42.4,30.7,30.19,South,176,15.0,16.0,63,0.00,,,0.00,250,Wunderground v.1.15,2013-03-02 16:56:00,
2013-03-02 10:02:00,43.8,29.5,30.19,South,173,16.0,19.0,57,0.00,,,0.00,315,Wunderground v.1.15,2013-03-02 17:02:00,
2013-03-02 10:08:00,44.2,29.5,30.18,South,186,17.0,19.0,56,0.00,,,0.00,292,Wunderground v.1.15,2013-03-02 17:08:00,
2013-03-02 10:14:00,43.4,30.0,30.19,South,177,15.0,16.0,59,0.00,,,0.00,404,Wunderground v.1.15,2013-03-02 17:14:00,
2013-03-02 10:22:00,45.6,29.4,30.18,South,176,15.0,15.0,53,0.00,,,0.00,353,Wunderground v.1.15,2013-03-02 17:22:00,
2013-03-02 10:28:00,46.4,28.8,30.17,SSE,168,15.0,20.0,50,0.00,,,0.00,339,Wunderground v.1.15,2013-03-02 17:28:00,
2013-03-02 10:34:00,47.2,28.5,30.17,SSE,166,16.0,16.0,48,0.00,,,0.00,253,Wunderground v.1.15,2013-03-02 17:34:00,
2013-03-02 10:40:00,47.0,28.8,30.16,South,173,15.0,17.0,49,0.00,,,0.00,318,Wunderground v.1.15,2013-03-02 17:40:00,
2013-03-02 10:46:00,47.4,28.2,30.16,SSE,167,16.0,17.0,47,0.00,,,0.00,341,Wunderground v.1.15,2013-03-02 17:46:00,
2013-03-02 10:54:00,47.9,28.1,30.16,South,175,17.0,21.0,46,0.00,,,0.00,417,Wunderground v.1.15,2013-03-02 17:54:00,
2013-03-02 11:00:00,48.4,28.0,30.16,SSE,154,19.0,19.0,45,0.00,,,0.00,424,Wunderground v.1.15,2013-03-02 18:00:00,
2013-03-02 11:06:00,48.0,28.2,30.15,SSE,164,18.0,23.0,46,0.00,,,0.00,404,Wunderground v.1.15,2013-03-02 18:06:00,
2013-03-02 11:12:00,47.5,29.3,30.15,South,172,17.0,23.0,49,0.00,,,0.00,404,Wunderground v.1.15,2013-03-02 18:12:00,
2013-03-02 11:18:00,48.1,28.3,30.14,South,172,19.0,23.0,46,0.00,,,0.00,438,Wunderground v.1.15,2013-03-02 18:18:00,
2013-03-02 11:24:00,48.3,29.0,30.14,SSE,166,21.0,25.0,47,0.00,,,0.00,441,Wunderground v.1.15,2013-03-02 18:24:00,
2013-03-02 11:30:00,48.7,28.3,30.14,South,174,22.0,22.0,45,0.00,,,0.00,401,Wunderground v.1.15,2013-03-02 18:30:00,
2013-03-02 11:36:00,48.1,28.3,30.14,South,174,21.0,23.0,46,0.00,,,0.00,445,Wunderground v.1.15,2013-03-02 18:36:00,
2013-03-02 11:42:00,48.5,28.6,30.13,South,172,21.0,23.0,46,0.00,,,0.00,520,Wunderground v.1.15,2013-03-02 18:42:00,
2013-03-02 11:48:00,48.8,28.9,30.13,South,183,21.0,23.0,46,0.00,,,0.00,411,Wunderground v.1.15,2013-03-02 18:48:00,
2013-03-02 11:54:00,49.6,27.4,30.12,SSE,166,20.0,23.0,42,0.00,,,0.00,466,Wunderground v.1.15,2013-03-02 18:54:00,
2013-03-02 12:00:00,50.0,27.8,30.12,South,172,22.0,22.0,42,0.00,,,0.00,383,Wunderground v.1.15,2013-03-02 19:00:00,
2013-03-02 12:06:00,49.9,27.7,30.12,South,179,21.0,23.0,42,0.00,,,0.00,364,Wunderground v.1.15,2013-03-02 19:06:00,
2013-03-02 12:12:00,49.6,28.0,30.11,South,179,19.0,23.0,43,0.00,,,0.00,387,Wunderground v.1.15,2013-03-02 19:12:00,
2013-03-02 12:18:00,50.1,29.0,30.12,South,186,19.0,23.0,44,0.00,,,0.00,457,Wunderground v.1.15,2013-03-02 19:18:00,
2013-03-02 12:24:00,49.9,27.7,30.10,South,181,18.0,23.0,42,0.00,,,0.00,431,Wunderground v.1.15,2013-03-02 19:24:00,
2013-03-02 12:30:00,50.1,28.4,30.10,SSE,168,17.0,17.0,43,0.00,,,0.00,508,Wunderground v.1.15,2013-03-02 19:30:00,
2013-03-02 12:36:00,49.7,28.1,30.10,South,190,17.0,23.0,43,0.00,,,0.00,283,Wunderground v.1.15,2013-03-02 19:36:00,
2013-03-02 12:42:00,49.9,28.3,30.10,South,179,18.0,23.0,43,0.00,,,0.00,283,Wunderground v.1.15,2013-03-02 19:42:00,
2013-03-02 12:48:00,51.1,28.2,30.10,South,181,18.0,23.0,41,0.00,,,0.00,462,Wunderground v.1.15,2013-03-02 19:48:00,
2013-03-02 12:54:00,49.2,28.2,30.09,South,179,17.0,23.0,44,0.00,,,0.00,494,Wunderground v.1.15,2013-03-02 19:54:00,
2013-03-02 13:00:00,50.4,28.1,30.09,South,185,16.0,16.0,42,0.00,,,0.00,410,Wunderground v.1.15,2013-03-02 20:00:00,
2013-03-02 13:06:00,51.4,27.2,30.08,South,178,16.0,23.0,39,0.00,,,0.00,383,Wunderground v.1.15,2013-03-02 20:06:00,
2013-03-02 13:12:00,52.0,27.1,30.08,South,187,17.0,23.0,38,0.00,,,0.00,316,Wunderground v.1.15,2013-03-02 20:12:00,
2013-03-02 13:18:00,51.3,27.8,30.08,South,175,16.0,23.0,40,0.00,,,0.00,216,Wunderground v.1.15,2013-03-02 20:18:00,
2013-03-02 13:24:00,51.8,27.6,30.08,South,182,15.0,23.0,39,0.00,,,0.00,202,Wunderground v.1.15,2013-03-02 20:24:00,
2013-03-02 13:30:00,50.4,27.6,30.08,SSW,205,14.0,23.0,41,0.00,,,0.00,190,Wunderground v.1.15,2013-03-02 20:30:00,
2013-03-02 13:36:00,51.8,27.6,30.06,SSW,195,17.0,24.0,39,0.00,,,0.00,206,Wunderground v.1.15,2013-03-02 20:36:00,
2013-03-02 13:42:00,51.9,26.4,30.06,South,187,19.0,23.0,37,0.00,,,0.00,185,Wunderground v.1.15,2013-03-02 20:42:00,
2013-03-02 13:48:00,51.4,27.2,30.07,South,181,18.0,25.0,39,0.00,,,0.00,178,Wunderground v.1.15,2013-03-02 20:48:00,
2013-03-02 13:54:00,51.3,27.2,30.06,South,184,20.0,23.0,39,0.00,,,0.00,149,Wunderground v.1.15,2013-03-02 20:54:00,
2013-03-02 14:00:00,50.6,27.1,30.05,South,188,21.0,25.0,40,0.00,,,0.00,167,Wunderground v.1.15,2013-03-02 21:00:00,
2013-03-02 14:06:00,50.9,27.4,30.06,South,181,22.0,25.0,40,0.00,,,0.00,190,Wunderground v.1.15,2013-03-02 21:06:00,
2013-03-02 14:12:00,50.4,27.0,30.06,SSE,168,19.0,23.0,40,0.00,,,0.00,199,Wunderground v.1.15,2013-03-02 21:12:00,
2013-03-02 14:18:00,51.8,27.6,30.06,SSW,209,15.0,23.0,39,0.00,,,0.00,258,Wunderground v.1.15,2013-03-02 21:18:00,
2013-03-02 14:24:00,52.7,27.1,30.05,South,175,10.0,23.0,37,0.00,,,0.00,276,Wunderground v.1.15,2013-03-02 21:24:00,
2013-03-02 14:30:00,53.1,26.8,30.05,WSW,258,7.0,7.0,36,0.00,,,0.00,359,Wunderground v.1.15,2013-03-02 21:30:00,
2013-03-02 14:36:00,53.2,27.6,30.05,South,187,4.0,23.0,37,0.00,,,0.00,352,Wunderground v.1.15,2013-03-02 21:36:00,
2013-03-02 14:42:00,52.7,26.5,30.05,SSW,201,8.0,23.0,36,0.00,,,0.00,299,Wunderground v.1.15,2013-03-02 21:42:00,
2013-03-02 14:50:00,52.3,26.8,30.04,SSW,203,12.0,23.0,37,0.00,,,0.00,232,Wunderground v.1.15,2013-03-02 21:50:00,
2013-03-02 14:56:00,52.7,25.1,30.04,SSW,198,13.0,23.0,34,0.00,,,0.00,206,Wunderground v.1.15,2013-03-02 21:56:00,
2013-03-02 15:02:00,53.4,25.7,30.04,SSW,212,10.0,16.0,34,0.00,,,0.00,237,Wunderground v.1.15,2013-03-02 22:02:00,
2013-03-02 15:08:00,53.3,24.9,30.03,SSW,212,8.0,16.0,33,0.00,,,0.00,271,Wunderground v.1.15,2013-03-02 22:08:00,
2013-03-02 15:14:00,53.7,31.1,30.03,NW,319,6.0,16.0,42,0.00,,,0.00,288,Wunderground v.1.15,2013-03-02 22:14:00,
2013-03-02 15:20:00,50.8,30.7,30.03,SW,235,6.0,16.0,46,0.00,,,0.00,248,Wunderground v.1.15,2013-03-02 22:20:00,
2013-03-02 15:26:00,50.7,30.7,30.02,NNE,29,5.0,16.0,46,0.00,,,0.00,188,Wunderground v.1.15,2013-03-02 22:26:00,
2013-03-02 15:32:00,51.3,31.7,30.02,NNW,338,7.0,16.0,47,0.00,,,0.00,167,Wunderground v.1.15,2013-03-02 22:32:00,
2013-03-02 15:38:00,50.6,32.6,30.02,North,353,10.0,16.0,50,0.00,,,0.00,165,Wunderground v.1.15,2013-03-02 22:38:00,
2013-03-02 15:44:00,50.3,32.8,30.02,North,349,11.0,16.0,51,0.00,,,0.00,183,Wunderground v.1.15,2013-03-02 22:44:00,
2013-03-02 15:50:00,49.6,32.2,30.02,NNW,342,11.0,11.0,51,0.00,,,0.00,163,Wunderground v.1.15,2013-03-02 22:50:00,
2013-03-02 15:56:00,49.1,31.7,30.01,North,8,9.0,16.0,51,0.00,,,0.00,156,Wunderground v.1.15,2013-03-02 22:56:00,
2013-03-02 16:02:00,48.3,31.0,30.01,North,7,11.0,16.0,51,0.00,,,0.00,135,Wunderground v.1.15,2013-03-02 23:02:00,
2013-03-02 16:08:00,48.1,30.8,30.00,North,5,12.0,16.0,51,0.00,,,0.00,127,Wunderground v.1.15,2013-03-02 23:08:00,
2013-03-02 16:16:00,47.8,30.5,29.99,North,355,13.0,16.0,51,0.00,,,0.00,114,Wunderground v.1.15,2013-03-02 23:16:00,
2013-03-02 16:22:00,47.9,30.6,29.99,North,5,13.0,16.0,51,0.00,,,0.00,120,Wunderground v.1.15,2013-03-02 23:22:00,
2013-03-02 16:28:00,47.7,30.9,29.99,North,7,14.0,16.0,52,0.00,,,0.00,130,Wunderground v.1.15,2013-03-02 23:28:00,
2013-03-02 16:34:00,47.6,30.8,29.99,North,6,13.0,16.0,52,0.00,,,0.00,109,Wunderground v.1.15,2013-03-02 23:34:00,
2013-03-02 16:40:00,47.6,30.8,29.99,North,360,12.0,12.0,52,0.00,,,0.00,88,Wunderground v.1.15,2013-03-02 23:40:00,
2013-03-02 16:46:00,47.7,30.9,29.98,North,4,12.0,16.0,52,0.00,,,0.00,91,Wunderground v.1.15,2013-03-02 23:46:00,
2013-03-02 16:52:00,47.8,31.0,29.98,North,360,11.0,16.0,52,0.00,,,0.00,90,Wunderground v.1.15,2013-03-02 23:52:00,
2013-03-02 16:58:00,47.8,31.0,29.98,North,2,9.0,16.0,52,0.00,,,0.00,86,Wunderground v.1.15,2013-03-02 23:58:00,
2013-03-02 17:04:00,47.8,31.5,29.98,North,2,7.0,16.0,53,0.00,,,0.00,76,Wunderground v.1.15,2013-03-03 00:04:00,
2013-03-02 17:10:00,47.7,30.9,29.98,North,2,4.0,4.0,52,0.00,,,0.00,72,Wunderground v.1.15,2013-03-03 00:10:00,
2013-03-02 17:16:00,48.1,30.8,29.98,NNW,335,3.0,16.0,51,0.00,,,0.00,53,Wunderground v.1.15,2013-03-03 00:16:00,
2013-03-02 17:22:00,48.1,32.2,29.98,WNW,285,5.0,16.0,54,0.00,,,0.00,47,Wunderground v.1.15,2013-03-03 00:22:00,
2013-03-02 17:28:00,47.7,32.3,29.98,WNW,285,7.0,16.0,55,0.00,,,0.00,49,Wunderground v.1.15,2013-03-03 00:28:00,
2013-03-02 17:34:00,47.3,31.9,29.98,WNW,285,6.0,16.0,55,0.00,,,0.00,44,Wunderground v.1.15,2013-03-03 00:34:00,
2013-03-02 17:40:00,47.2,32.3,29.97,WNW,285,4.0,4.0,56,0.00,,,0.00,28,Wunderground v.1.15,2013-03-03 00:40:00,
2013-03-02 17:46:00,46.6,31.7,29.97,North,10,2.0,16.0,56,0.00,,,0.00,23,Wunderground v.1.15,2013-03-03 00:46:00,
2013-03-02 17:52:00,46.5,32.1,29.97,North,10,2.0,16.0,57,0.00,,,0.00,18,Wunderground v.1.15,2013-03-03 00:52:00,
2013-03-02 17:58:00,46.0,31.6,29.97,North,10,2.0,16.0,57,0.00,,,0.00,12,Wunderground v.1.15,2013-03-03 00:58:00,
2013-03-02 18:06:00,46.2,31.8,29.97,North,10,3.0,16.0,57,0.00,,,0.00,7,Wunderground v.1.15,2013-03-03 01:06:00,
2013-03-02 18:12:00,46.2,31.8,29.97,North,10,3.0,16.0,57,0.00,,,0.00,0,Wunderground v.1.15,2013-03-03 01:12:00,
2013-03-02 18:18:00,46.0,31.6,29.96,North,10,0.0,16.0,57,0.00,,,0.00,0,Wunderground v.1.15,2013-03-03 01:18:00,
2013-03-02 18:24:00,46.0,31.6,29.96,North,10,1.0,16.0,57,0.00,,,0.00,0,Wunderground v.1.15,2013-03-03 01:24:00,
2013-03-02 18:30:00,45.6,31.2,29.96,North,10,3.0,16.0,57,0.00,,,0.00,0,Wunderground v.1.15,2013-03-03 01:30:00,
2013-03-02 18:36:00,45.4,31.5,29.96,North,10,3.0,16.0,58,0.00,,,0.00,0,Wunderground v.1.15,2013-03-03 01:36:00,
2013-03-02 18:42:00,44.8,30.9,29.95,East,79,3.0,16.0,58,0.00,,,0.00,0,Wunderground v.1.15,2013-03-03 01:42:00,
2013-03-02 18:48:00,44.8,30.9,29.95,East,79,3.0,16.0,58,0.00,,,0.00,0,Wunderground v.1.15,2013-03-03 01:48:00,
2013-03-02 18:54:00,44.3,31.7,29.95,East,98,2.0,16.0,61,0.00,,,0.00,0,Wunderground v.1.15,2013-03-03 01:54:00,
2013-03-02 19:00:00,43.4,31.2,29.95,East,98,1.0,16.0,62,0.00,,,0.00,0,Wunderground v.1.15,2013-03-03 02:00:00,
2013-03-02 19:06:00,42.9,31.2,29.95,SSW,204,2.0,16.0,63,0.00,,,0.00,0,Wunderground v.1.15,2013-03-03 02:06:00,
2013-03-02 19:12:00,42.5,31.2,29.95,SSW,203,5.0,16.0,64,0.00,,,0.00,0,Wunderground v.1.15,2013-03-03 02:12:00,
2013-03-02 19:18:00,41.3,30.8,29.94,South,181,7.0,16.0,66,0.00,,,0.00,0,Wunderground v.1.15,2013-03-03 02:18:00,
2013-03-02 19:24:00,41.8,30.9,29.94,South,183,7.0,16.0,65,0.00,,,0.00,0,Wunderground v.1.15,2013-03-03 02:24:00,
2013-03-02 19:30:00,41.5,31.0,29.94,South,187,7.0,16.0,66,0.00,,,0.00,0,Wunderground v.1.15,2013-03-03 02:30:00,
2013-03-02 19:36:00,40.1,30.4,29.94,South,188,7.0,16.0,68,0.00,,,0.00,0,Wunderground v.1.15,2013-03-03 02:36:00,
2013-03-02 19:42:00,39.3,30.7,29.93,South,188,7.0,16.0,71,0.00,,,0.00,0,Wunderground v.1.15,2013-03-03 02:42:00,
2013-03-02 19:48:00,39.9,31.3,29.93,South,185,7.0,16.0,71,0.00,,,0.00,0,Wunderground v.1.15,2013-03-03 02:48:00,
2013-03-02 19:54:00,39.6,31.3,29.93,South,185,5.0,16.0,72,0.00,,,0.00,0,Wunderground v.1.15,2013-03-03 02:54:00,
2013-03-02 20:00:00,39.6,31.3,29.93,South,185,5.0,16.0,72,0.00,,,0.00,0,Wunderground v.1.15,2013-03-03 03:00:00,
2013-03-02 20:06:00,39.4,31.1,29.93,South,190,5.0,16.0,72,0.00,,,0.00,0,Wunderground v.1.15,2013-03-03 03:06:00,
2013-03-02 20:12:00,39.6,31.0,29.93,South,190,6.0,16.0,71,0.00,,,0.00,0,Wunderground v.1.15,2013-03-03 03:12:00,
2013-03-02 20:18:00,40.0,31.0,29.92,SSW,192,6.0,16.0,70,0.00,,,0.00,0,Wunderground v.1.15,2013-03-03 03:18:00,
2013-03-02 20:24:00,39.3,30.7,29.92,South,191,5.0,16.0,71,0.00,,,0.00,0,Wunderground v.1.15,2013-03-03 03:24:00,
2013-03-02 20:30:00,39.2,30.6,29.92,SSW,194,6.0,6.0,71,0.00,,,0.00,0,Wunderground v.1.15,2013-03-03 03:30:00,
2013-03-02 20:36:00,38.4,30.8,29.91,SSW,194,6.0,16.0,74,0.00,,,0.00,0,Wunderground v.1.15,2013-03-03 03:36:00,
2013-03-02 20:42:00,37.2,31.0,29.91,SSW,195,5.0,16.0,78,0.00,,,0.00,0,Wunderground v.1.15,2013-03-03 03:42:00,
2013-03-02 20:50:00,37.1,29.9,29.91,SSW,200,6.0,16.0,75,0.00,,,0.00,0,Wunderground v.1.15,2013-03-03 03:50:00,
2013-03-02 20:58:00,37.2,30.3,29.91,SSW,195,10.0,16.0,76,0.00,,,0.00,0,Wunderground v.1.15,2013-03-03 03:58:00,
2013-03-02 21:04:00,37.4,30.5,29.90,South,185,14.0,16.0,76,0.00,,,0.00,0,Wunderground v.1.15,2013-03-03 04:04:00,
2013-03-02 21:10:00,37.4,29.9,29.90,South,182,13.0,16.0,74,0.00,,,0.00,0,Wunderground v.1.15,2013-03-03 04:10:00,
2013-03-02 21:16:00,40.2,29.7,29.90,South,179,13.0,16.0,66,0.00,,,0.00,0,Wunderground v.1.15,2013-03-03 04:16:00,
2013-03-02 21:22:00,41.4,28.9,29.90,South,179,14.0,16.0,61,0.00,,,0.00,0,Wunderground v.1.15,2013-03-03 04:22:00,
2013-03-02 21:28:00,41.0,29.4,29.89,South,172,13.0,16.0,63,0.00,,,0.00,0,Wunderground v.1.15,2013-03-03 04:28:00,
2013-03-02 21:34:00,42.3,29.0,29.89,South,169,14.0,16.0,59,0.00,,,0.00,0,Wunderground v.1.15,2013-03-03 04:34:00,
2013-03-02 21:40:00,43.0,28.8,29.89,South,177,16.0,18.0,57,0.00,,,0.00,0,Wunderground v.1.15,2013-03-03 04:40:00,
2013-03-02 21:46:00,42.4,28.7,29.89,South,187,17.0,18.0,58,0.00,,,0.00,0,Wunderground v.1.15,2013-03-03 04:46:00,
2013-03-02 21:52:00,44.0,28.4,29.88,South,181,17.0,19.0,54,0.00,,,0.00,0,Wunderground v.1.15,2013-03-03 04:52:00,
2013-03-02 21:58:00,43.6,28.9,29.87,South,179,20.0,22.0,56,0.00,,,0.00,0,Wunderground v.1.15,2013-03-03 04:58:00,
2013-03-02 22:00:00,43.2,29.0,29.86,South,181,21.0,23.0,57,0.00,,,0.00,0,Wunderground v.1.15,2013-03-03 05:00:00,
2013-03-02 22:02:00,42.9,28.7,29.87,South,183,21.0,23.0,57,0.00,,,0.00,0,Wunderground v.1.15,2013-03-03 05:02:00,
2013-03-02 22:06:00,42.6,28.8,29.88,South,170,21.0,23.0,58,0.00,,,0.00,0,Wunderground v.1.15,2013-03-03 05:06:00,
2013-03-02 22:18:00,41.8,28.1,29.88,SSE,162,12.0,18.0,58,0.00,,,0.00,0,Wunderground v.1.15,2013-03-03 05:18:00,
2013-03-02 22:26:00,41.6,28.3,29.88,South,183,10.0,16.0,59,0.00,,,0.00,0,Wunderground v.1.15,2013-03-03 05:26:00,
2013-03-02 22:34:00,38.6,28.6,29.87,South,180,11.0,16.0,67,0.00,,,0.00,0,Wunderground v.1.15,2013-03-03 05:34:00,
2013-03-02 22:40:00,37.1,28.6,29.87,South,179,12.0,16.0,71,0.00,,,0.00,0,Wunderground v.1.15,2013-03-03 05:40:00,
2013-03-02 22:46:00,39.1,29.4,29.86,South,181,13.0,16.0,68,0.00,,,0.00,0,Wunderground v.1.15,2013-03-03 05:46:00,
2013-03-02 22:52:00,39.6,29.2,29.86,South,175,13.0,16.0,66,0.00,,,0.00,0,Wunderground v.1.15,2013-03-03 05:52:00,
2013-03-02 22:58:00,39.8,29.0,29.86,South,179,12.0,16.0,65,0.00,,,0.00,0,Wunderground v.1.15,2013-03-03 05:58:00,
2013-03-02 23:04:00,39.6,28.8,29.86,South,180,11.0,16.0,65,0.00,,,0.00,0,Wunderground v.1.15,2013-03-03 06:04:00,
2013-03-02 23:10:00,41.5,29.0,29.86,South,187,11.0,16.0,61,0.00,,,0.00,0,Wunderground v.1.15,2013-03-03 06:10:00,
2013-03-02 23:16:00,42.9,29.1,29.86,South,191,11.0,16.0,58,0.00,,,0.00,0,Wunderground v.1.15,2013-03-03 06:16:00,
2013-03-02 23:22:00,43.1,29.7,29.86,SSW,199,9.0,16.0,59,0.00,,,0.00,0,Wunderground v.1.15,2013-03-03 06:22:00,
2013-03-02 23:28:00,43.6,29.4,29.86,South,190,10.0,16.0,57,0.00,,,0.00,0,Wunderground v.1.15,2013-03-03 06:28:00,
2013-03-02 23:34:00,43.7,30.3,29.85,South,177,14.0,21.0,59,0.00,,,0.00,0,Wunderground v.1.15,2013-03-03 06:34:00,
2013-03-02 23:40:00,43.4,30.4,29.85,South,172,19.0,21.0,60,0.00,,,0.00,0,Wunderground v.1.15,2013-03-03 06:40:00,
2013-03-02 23:48:00,43.2,31.4,29.85,South,172,20.0,22.0,63,0.00,,,0.00,0,Wunderground v.1.15,2013-03-03 06:48:00,
2013-03-02 23:54:00,42.8,32.2,29.84,South,182,22.0,25.0,66,0.00,,,0.00,0,Wunderground v.1.15,2013-03-03 06:54:00,